This is the latest recevied weather packets stored in our database for station/object DC0PP-10. If no packets are shown the sender has not sent any weather packets the latest 10 day(s).
| Time | Temp. | Humidity | Pressure | Rain* | Wind** | Luminosity | Snow |
|---|---|---|---|---|---|---|---|
| 1777613138 | 10° C | 49% | 1026.3 hPa | - | - | - | - |
| 1777612238 | 10° C | 51% | 1026.2 hPa | - | - | - | - |
| 1777611338 | 8.89° C | 51% | 1026.3 hPa | - | - | - | - |
| 1777610438 | 10° C | 49% | 1026.1 hPa | - | - | - | - |
| 1777609538 | 10.56° C | 45% | 1026.3 hPa | - | - | - | - |
| 1777608638 | 10.56° C | 42% | 1026.1 hPa | - | - | - | - |
| 1777607737 | 11.11° C | 41% | 1025.8 hPa | - | - | - | - |
| 1777606837 | 11.67° C | 37% | 1025.5 hPa | - | - | - | - |
| 1777605937 | 11.67° C | 38% | 1025.7 hPa | - | - | - | - |
| 1777605037 | 11.67° C | 38% | 1025.9 hPa | - | - | - | - |
| 1777604137 | 11.11° C | 45% | 1026 hPa | - | - | - | - |
| 1777603237 | 11.11° C | 41% | 1026 hPa | - | - | - | - |
| 1777602336 | 11.11° C | 42% | 1026.1 hPa | - | - | - | - |
| 1777601436 | 11.67° C | 41% | 1026.1 hPa | - | - | - | - |
| 1777600536 | 12.22° C | 38% | 1026 hPa | - | - | - | - |
| 1777599636 | 12.22° C | 38% | 1026 hPa | - | - | - | - |
| 1777598736 | 12.78° C | 35% | 1025.9 hPa | - | - | - | - |
| 1777597836 | 13.33° C | 31% | 1025.8 hPa | - | - | - | - |
| 1777596935 | 13.33° C | 32% | 1025.7 hPa | - | - | - | - |
| 1777596035 | 13.33° C | 32% | 1025.9 hPa | - | - | - | - |
| 1777595142 | 13.33° C | 32% | 1025.8 hPa | - | - | - | - |
| 1777594242 | 13.89° C | 31% | 1025.6 hPa | - | - | - | - |
| 1777593342 | 13.89° C | 30% | 1025.7 hPa | - | - | - | - |
| 1777592442 | 13.89° C | 30% | 1025.6 hPa | - | - | - | - |
| 1777591541 | 14.44° C | 30% | 1025.6 hPa | - | - | - | - |
* Rain since midnight (hover to see other rain measurements)
** Current wind speed in m/s (hover to see current wind gust speed)